sensor_id;sensor_type;location;lat;lon;timestamp;pressure;altitude;pressure_sealevel;temperature;humidity
13434;BME280;6789;47.678;9.158;2023-05-22T00:03:09;96371.34;;;17.01;95.30
13434;BME280;6789;47.678;9.158;2023-05-22T00:08:01;96373.22;;;16.96;96.02
13434;BME280;6789;47.678;9.158;2023-05-22T00:12:53;96375.63;;;16.92;97.08
13434;BME280;6789;47.678;9.158;2023-05-22T00:17:45;96376.38;;;16.98;97.11
13434;BME280;6789;47.678;9.158;2023-05-22T00:22:38;96383.03;;;16.90;97.47
13434;BME280;6789;47.678;9.158;2023-05-22T00:27:30;96383.09;;;16.75;98.11
13434;BME280;6789;47.678;9.158;2023-05-22T00:32:22;96377.63;;;16.57;99.90
13434;BME280;6789;47.678;9.158;2023-05-22T00:37:14;96389.28;;;16.51;99.63
13434;BME280;6789;47.678;9.158;2023-05-22T00:42:05;96381.63;;;16.40;98.83
13434;BME280;6789;47.678;9.158;2023-05-22T00:46:57;96386.66;;;16.36;98.15
13434;BME280;6789;47.678;9.158;2023-05-22T00:51:49;96392.19;;;16.44;97.54
13434;BME280;6789;47.678;9.158;2023-05-22T00:56:41;96391.94;;;16.46;96.18
13434;BME280;6789;47.678;9.158;2023-05-22T01:01:34;96398.03;;;16.32;95.98
13434;BME280;6789;47.678;9.158;2023-05-22T01:06:29;96401.75;;;16.36;94.70
13434;BME280;6789;47.678;9.158;2023-05-22T01:12:26;96410.50;;;16.21;96.25
13434;BME280;6789;47.678;9.158;2023-05-22T01:28:08;96423.19;;;16.04;98.87
13434;BME280;6789;47.678;9.158;2023-05-22T01:33:03;96431.91;;;16.00;99.65
13434;BME280;6789;47.678;9.158;2023-05-22T01:37:59;96436.41;;;15.99;100.00
13434;BME280;6789;47.678;9.158;2023-05-22T01:42:51;96428.22;;;16.06;100.00
13434;BME280;6789;47.678;9.158;2023-05-22T01:47:43;96432.19;;;16.08;100.00
13434;BME280;6789;47.678;9.158;2023-05-22T01:53:07;96416.84;;;16.15;100.00
13434;BME280;6789;47.678;9.158;2023-05-22T01:58:15;96426.91;;;16.08;100.00
13434;BME280;6789;47.678;9.158;2023-05-22T02:03:18;96414.44;;;16.14;100.00
13434;BME280;6789;47.678;9.158;2023-05-22T02:08:12;96416.59;;;16.12;100.00
13434;BME280;6789;47.678;9.158;2023-05-22T02:13:05;96418.41;;;16.16;100.00
13434;BME280;6789;47.678;9.158;2023-05-22T02:17:59;96423.72;;;16.16;100.00
13434;BME280;6789;47.678;9.158;2023-05-22T02:22:52;96425.59;;;16.06;100.00
13434;BME280;6789;47.678;9.158;2023-05-22T02:27:47;96429.81;;;16.02;100.00
13434;BME280;6789;47.678;9.158;2023-05-22T02:32:40;96420.00;;;15.97;100.00
13434;BME280;6789;47.678;9.158;2023-05-22T02:37:33;96417.91;;;15.99;100.00
13434;BME280;6789;47.678;9.158;2023-05-22T02:42:25;96406.25;;;16.10;100.00
13434;BME280;6789;47.678;9.158;2023-05-22T02:47:17;96404.16;;;16.07;100.00
13434;BME280;6789;47.678;9.158;2023-05-22T02:52:08;96420.81;;;15.98;100.00
13434;BME280;6789;47.678;9.158;2023-05-22T02:57:00;96420.81;;;15.93;100.00
13434;BME280;6789;47.678;9.158;2023-05-22T03:01:53;96429.53;;;15.98;100.00
13434;BME280;6789;47.678;9.158;2023-05-22T03:06:45;96419.50;;;15.95;100.00
13434;BME280;6789;47.678;9.158;2023-05-22T03:11:37;96424.81;;;15.90;100.00
13434;BME280;6789;47.678;9.158;2023-05-22T03:16:29;96423.44;;;15.83;100.00
13434;BME280;6789;47.678;9.158;2023-05-22T03:21:21;96429.53;;;15.73;100.00
13434;BME280;6789;47.678;9.158;2023-05-22T03:26:12;96425.03;;;15.64;100.00
13434;BME280;6789;47.678;9.158;2023-05-22T03:31:04;96432.69;;;15.56;100.00
13434;BME280;6789;47.678;9.158;2023-05-22T03:35:59;96438.25;;;15.54;100.00
13434;BME280;6789;47.678;9.158;2023-05-22T03:40:51;96429.22;;;15.50;100.00
13434;BME280;6789;47.678;9.158;2023-05-22T03:45:43;96433.22;;;15.53;100.00
13434;BME280;6789;47.678;9.158;2023-05-22T03:50:35;96433.75;;;15.70;100.00
13434;BME280;6789;47.678;9.158;2023-05-22T03:55:27;96432.16;;;15.64;100.00
13434;BME280;6789;47.678;9.158;2023-05-22T04:00:21;96439.84;;;15.70;100.00
13434;BME280;6789;47.678;9.158;2023-05-22T04:05:15;96440.13;;;15.83;100.00
13434;BME280;6789;47.678;9.158;2023-05-22T04:10:21;96446.19;;;15.84;100.00
13434;BME280;6789;47.678;9.158;2023-05-22T04:15:27;96457.84;;;15.83;100.00
13434;BME280;6789;47.678;9.158;2023-05-22T04:20:23;96463.38;;;15.81;100.00
13434;BME280;6789;47.678;9.158;2023-05-22T04:25:29;96470.53;;;15.91;100.00
13434;BME280;6789;47.678;9.158;2023-05-22T04:30:36;96469.50;;;16.12;100.00
13434;BME280;6789;47.678;9.158;2023-05-22T04:35:30;96470.28;;;16.42;100.00
13434;BME280;6789;47.678;9.158;2023-05-22T04:40:37;96472.94;;;16.57;100.00
13434;BME280;6789;47.678;9.158;2023-05-22T04:45:42;96485.31;;;16.91;100.00
13434;BME280;6789;47.678;9.158;2023-05-22T04:50:49;96481.56;;;17.02;99.51
13434;BME280;6789;47.678;9.158;2023-05-22T04:55:41;96486.91;;;17.60;98.19
13434;BME280;6789;47.678;9.158;2023-05-22T05:00:48;96487.22;;;19.38;87.00
13434;BME280;6789;47.678;9.158;2023-05-22T05:05:55;96491.91;;;21.29;75.31
13434;BME280;6789;47.678;9.158;2023-05-22T05:11:03;96481.94;;;22.53;69.39
13434;BME280;6789;47.678;9.158;2023-05-22T05:16:00;96488.59;;;23.16;65.83
13434;BME280;6789;47.678;9.158;2023-05-22T05:20:53;96492.78;;;23.86;63.10
13434;BME280;6789;47.678;9.158;2023-05-22T05:25:53;96500.03;;;24.70;60.26
13434;BME280;6789;47.678;9.158;2023-05-22T05:30:59;96483.59;;;25.63;56.66
13434;BME280;6789;47.678;9.158;2023-05-22T05:35:55;96493.38;;;26.17;54.10
13434;BME280;6789;47.678;9.158;2023-05-22T05:40:47;96486.41;;;25.95;54.82
13434;BME280;6789;47.678;9.158;2023-05-22T05:45:41;96481.19;;;25.99;54.34
13434;BME280;6789;47.678;9.158;2023-05-22T05:50:48;96486.25;;;26.00;54.55
13434;BME280;6789;47.678;9.158;2023-05-22T05:55:53;96497.88;;;26.54;52.06
13434;BME280;6789;47.678;9.158;2023-05-22T06:01:01;96496.88;;;26.17;52.88
13434;BME280;6789;47.678;9.158;2023-05-22T06:05:59;96500.66;;;25.96;53.90
13434;BME280;6789;47.678;9.158;2023-05-22T06:11:05;96497.09;;;25.84;54.01
13434;BME280;6789;47.678;9.158;2023-05-22T06:15:58;96516.78;;;25.76;54.21
13434;BME280;6789;47.678;9.158;2023-05-22T06:20:58;96516.13;;;25.70;54.73
13434;BME280;6789;47.678;9.158;2023-05-22T06:25:55;96516.97;;;25.25;54.74
13434;BME280;6789;47.678;9.158;2023-05-22T06:31:01;96529.56;;;24.53;57.12
13434;BME280;6789;47.678;9.158;2023-05-22T06:36:07;96529.81;;;24.94;56.44
13434;BME280;6789;47.678;9.158;2023-05-22T06:41:00;96522.44;;;24.07;58.58
13434;BME280;6789;47.678;9.158;2023-05-22T06:46:06;96528.56;;;24.07;59.26
13434;BME280;6789;47.678;9.158;2023-05-22T06:51:12;96518.81;;;24.37;58.45
13434;BME280;6789;47.678;9.158;2023-05-22T06:56:29;96513.72;;;24.94;57.52
13434;BME280;6789;47.678;9.158;2023-05-22T07:01:22;96516.22;;;25.08;56.99
13434;BME280;6789;47.678;9.158;2023-05-22T07:06:28;96521.44;;;24.96;56.92
13434;BME280;6789;47.678;9.158;2023-05-22T07:11:37;96514.31;;;25.17;56.54
13434;BME280;6789;47.678;9.158;2023-05-22T07:16:44;96523.63;;;25.02;57.47
13434;BME280;6789;47.678;9.158;2023-05-22T07:21:52;96511.94;;;25.15;56.51
13434;BME280;6789;47.678;9.158;2023-05-22T07:26:58;96510.09;;;24.90;57.51
13434;BME280;6789;47.678;9.158;2023-05-22T07:32:04;96509.81;;;24.83;57.19
13434;BME280;6789;47.678;9.158;2023-05-22T07:37:12;96520.53;;;24.83;57.41
13434;BME280;6789;47.678;9.158;2023-05-22T07:42:06;96512.06;;;24.64;57.24
13434;BME280;6789;47.678;9.158;2023-05-22T07:47:12;96519.63;;;24.46;55.97
13434;BME280;6789;47.678;9.158;2023-05-22T07:52:38;96518.78;;;23.94;57.52
13434;BME280;6789;47.678;9.158;2023-05-22T07:57:46;96516.38;;;23.76;58.36
13434;BME280;6789;47.678;9.158;2023-05-22T08:02:40;96514.50;;;23.85;58.02
13434;BME280;6789;47.678;9.158;2023-05-22T08:07:47;96514.34;;;23.81;58.01
13434;BME280;6789;47.678;9.158;2023-05-22T08:12:57;96500.88;;;23.56;58.11
13434;BME280;6789;47.678;9.158;2023-05-22T08:18:18;96493.66;;;23.65;58.57
13434;BME280;6789;47.678;9.158;2023-05-22T08:23:44;96501.25;;;23.80;58.94
13434;BME280;6789;47.678;9.158;2023-05-22T08:29:05;96498.91;;;23.95;58.19
13434;BME280;6789;47.678;9.158;2023-05-22T08:34:14;96494.38;;;24.13;58.25
13434;BME280;6789;47.678;9.158;2023-05-22T08:39:21;96498.78;;;24.59;57.18
13434;BME280;6789;47.678;9.158;2023-05-22T08:44:29;96498.88;;;24.97;55.91
13434;BME280;6789;47.678;9.158;2023-05-22T08:49:39;96492.41;;;24.98;55.62
13434;BME280;6789;47.678;9.158;2023-05-22T08:54:55;96492.78;;;24.71;55.96
13434;BME280;6789;47.678;9.158;2023-05-22T09:00:16;96495.31;;;24.25;57.13
13434;BME280;6789;47.678;9.158;2023-05-22T09:05:23;96491.25;;;25.07;56.37
13434;BME280;6789;47.678;9.158;2023-05-22T09:10:36;96479.47;;;25.66;55.21
13434;BME280;6789;47.678;9.158;2023-05-22T09:15:42;96478.81;;;25.97;53.85
13434;BME280;6789;47.678;9.158;2023-05-22T09:20:50;96475.53;;;25.34;54.24
13434;BME280;6789;47.678;9.158;2023-05-22T09:25:59;96475.78;;;25.50;54.60
13434;BME280;6789;47.678;9.158;2023-05-22T09:31:13;96466.09;;;25.57;54.67
13434;BME280;6789;47.678;9.158;2023-05-22T09:36:21;96477.06;;;25.73;53.56
13434;BME280;6789;47.678;9.158;2023-05-22T09:41:32;96473.66;;;25.93;53.79
13434;BME280;6789;47.678;9.158;2023-05-22T09:47:09;96471.59;;;26.30;52.54
13434;BME280;6789;47.678;9.158;2023-05-22T09:52:32;96459.66;;;26.60;51.57
13434;BME280;6789;47.678;9.158;2023-05-22T09:57:44;96472.97;;;26.36;52.34
13434;BME280;6789;47.678;9.158;2023-05-22T10:03:01;96467.28;;;26.17;52.96
13434;BME280;6789;47.678;9.158;2023-05-22T10:08:20;96466.50;;;25.96;52.94
13434;BME280;6789;47.678;9.158;2023-05-22T10:13:16;96466.47;;;25.76;53.80
13434;BME280;6789;47.678;9.158;2023-05-22T10:18:10;96470.34;;;25.87;53.62
13434;BME280;6789;47.678;9.158;2023-05-22T10:23:04;96461.56;;;26.19;53.05
13434;BME280;6789;47.678;9.158;2023-05-22T10:27:58;96466.03;;;26.35;52.16
13434;BME280;6789;47.678;9.158;2023-05-22T10:33:28;96449.06;;;26.43;51.93
13434;BME280;6789;47.678;9.158;2023-05-22T10:43:48;96443.66;;;26.87;49.90
13434;BME280;6789;47.678;9.158;2023-05-22T10:54:38;96423.81;;;26.80;49.64
13434;BME280;6789;47.678;9.158;2023-05-22T11:00:15;96417.38;;;27.41;48.76
13434;BME280;6789;47.678;9.158;2023-05-22T11:10:56;96406.81;;;27.24;49.01
13434;BME280;6789;47.678;9.158;2023-05-22T11:16:17;96407.94;;;27.46;47.18
13434;BME280;6789;47.678;9.158;2023-05-22T11:21:27;96400.81;;;27.90;46.99
13434;BME280;6789;47.678;9.158;2023-05-22T11:26:22;96396.28;;;28.33;44.08
13434;BME280;6789;47.678;9.158;2023-05-22T11:31:29;96387.91;;;28.11;44.52
13434;BME280;6789;47.678;9.158;2023-05-22T11:36:58;96387.16;;;28.37;43.74
13434;BME280;6789;47.678;9.158;2023-05-22T11:42:05;96386.53;;;28.44;42.31
13434;BME280;6789;47.678;9.158;2023-05-22T11:47:11;96375.13;;;28.78;40.89
13434;BME280;6789;47.678;9.158;2023-05-22T11:52:18;96372.25;;;29.01;38.93
13434;BME280;6789;47.678;9.158;2023-05-22T11:57:32;96373.91;;;28.91;41.61
13434;BME280;6789;47.678;9.158;2023-05-22T12:03:00;96368.16;;;29.07;40.50
13434;BME280;6789;47.678;9.158;2023-05-22T12:08:11;96360.38;;;29.37;40.97
13434;BME280;6789;47.678;9.158;2023-05-22T12:13:37;96363.34;;;29.47;41.13
13434;BME280;6789;47.678;9.158;2023-05-22T12:18:54;96367.44;;;29.41;42.09
13434;BME280;6789;47.678;9.158;2023-05-22T12:24:04;96371.44;;;29.47;41.04
13434;BME280;6789;47.678;9.158;2023-05-22T12:29:12;96364.81;;;29.29;42.31
13434;BME280;6789;47.678;9.158;2023-05-22T12:34:48;96353.28;;;29.48;39.98
13434;BME280;6789;47.678;9.158;2023-05-22T12:40:04;96362.31;;;29.55;40.85
13434;BME280;6789;47.678;9.158;2023-05-22T12:45:32;96356.88;;;29.52;40.52
13434;BME280;6789;47.678;9.158;2023-05-22T12:51:30;96342.28;;;29.75;40.42
13434;BME280;6789;47.678;9.158;2023-05-22T12:57:01;96346.19;;;29.59;39.57
13434;BME280;6789;47.678;9.158;2023-05-22T13:02:37;96346.38;;;29.50;39.63
13434;BME280;6789;47.678;9.158;2023-05-22T13:08:05;96352.97;;;29.18;37.67
13434;BME280;6789;47.678;9.158;2023-05-22T13:13:11;96340.78;;;29.09;40.07
13434;BME280;6789;47.678;9.158;2023-05-22T13:18:18;96342.00;;;29.27;37.51
13434;BME280;6789;47.678;9.158;2023-05-22T13:23:24;96332.16;;;28.73;36.05
13434;BME280;6789;47.678;9.158;2023-05-22T13:34:41;96333.59;;;27.97;37.14
13434;BME280;6789;47.678;9.158;2023-05-22T13:45:04;96334.50;;;28.16;36.99
13434;BME280;6789;47.678;9.158;2023-05-22T13:50:14;96331.75;;;28.01;37.53
13434;BME280;6789;47.678;9.158;2023-05-22T13:55:20;96325.53;;;28.12;37.90
13434;BME280;6789;47.678;9.158;2023-05-22T14:00:27;96321.22;;;27.96;37.70
13434;BME280;6789;47.678;9.158;2023-05-22T14:05:34;96319.59;;;27.79;39.48
13434;BME280;6789;47.678;9.158;2023-05-22T14:10:44;96310.53;;;27.99;40.33
13434;BME280;6789;47.678;9.158;2023-05-22T14:16:20;96304.25;;;27.68;41.87
13434;BME280;6789;47.678;9.158;2023-05-22T14:27:03;96307.75;;;27.68;41.54
13434;BME280;6789;47.678;9.158;2023-05-22T14:32:20;96303.63;;;27.47;42.28
13434;BME280;6789;47.678;9.158;2023-05-22T14:37:53;96302.63;;;27.40;42.59
13434;BME280;6789;47.678;9.158;2023-05-22T14:43:01;96301.75;;;27.36;41.23
13434;BME280;6789;47.678;9.158;2023-05-22T14:48:14;96309.78;;;27.47;39.78
13434;BME280;6789;47.678;9.158;2023-05-22T14:53:23;96315.81;;;27.56;39.77
13434;BME280;6789;47.678;9.158;2023-05-22T14:58:34;96305.31;;;27.40;40.46
13434;BME280;6789;47.678;9.158;2023-05-22T15:03:41;96295.06;;;27.57;40.38
13434;BME280;6789;47.678;9.158;2023-05-22T15:08:49;96287.81;;;27.73;41.41
13434;BME280;6789;47.678;9.158;2023-05-22T15:25:55;96284.09;;;28.05;40.89
13434;BME280;6789;47.678;9.158;2023-05-22T15:32:13;96276.94;;;28.24;39.83
13434;BME280;6789;47.678;9.158;2023-05-22T15:37:34;96284.28;;;28.12;39.77
13434;BME280;6789;47.678;9.158;2023-05-22T15:43:08;96285.63;;;27.90;40.13
13434;BME280;6789;47.678;9.158;2023-05-22T15:48:19;96283.22;;;28.01;39.55
13434;BME280;6789;47.678;9.158;2023-05-22T15:53:49;96305.72;;;27.02;44.48
13434;BME280;6789;47.678;9.158;2023-05-22T15:59:19;96293.78;;;26.56;44.42
13434;BME280;6789;47.678;9.158;2023-05-22T16:05:01;96309.69;;;26.37;45.38
13434;BME280;6789;47.678;9.158;2023-05-22T16:10:28;96308.41;;;26.34;44.33
13434;BME280;6789;47.678;9.158;2023-05-22T16:16:10;96294.72;;;26.15;44.31
13434;BME280;6789;47.678;9.158;2023-05-22T16:21:21;96307.03;;;26.16;44.31
13434;BME280;6789;47.678;9.158;2023-05-22T16:26:30;96293.47;;;26.13;43.91
13434;BME280;6789;47.678;9.158;2023-05-22T16:31:38;96301.13;;;25.91;44.14
13434;BME280;6789;47.678;9.158;2023-05-22T16:36:45;96303.31;;;25.97;44.12
13434;BME280;6789;47.678;9.158;2023-05-22T16:42:14;96295.75;;;25.91;45.35
13434;BME280;6789;47.678;9.158;2023-05-22T16:47:43;96303.19;;;25.94;46.20
13434;BME280;6789;47.678;9.158;2023-05-22T16:52:59;96322.31;;;25.92;45.70
13434;BME280;6789;47.678;9.158;2023-05-22T16:58:05;96318.31;;;25.57;46.37
13434;BME280;6789;47.678;9.158;2023-05-22T17:03:11;96320.88;;;25.33;47.04
13434;BME280;6789;47.678;9.158;2023-05-22T17:13:37;96336.59;;;25.23;45.28
13434;BME280;6789;47.678;9.158;2023-05-22T17:19:06;96336.03;;;25.09;45.21
13434;BME280;6789;47.678;9.158;2023-05-22T17:24:29;96329.56;;;25.10;45.35
13434;BME280;6789;47.678;9.158;2023-05-22T17:29:36;96339.53;;;25.10;45.21
13434;BME280;6789;47.678;9.158;2023-05-22T17:34:43;96338.88;;;25.04;44.93
13434;BME280;6789;47.678;9.158;2023-05-22T17:39:57;96340.91;;;24.78;45.47
13434;BME280;6789;47.678;9.158;2023-05-22T17:45:16;96337.31;;;25.03;44.92
13434;BME280;6789;47.678;9.158;2023-05-22T17:50:55;96347.13;;;25.28;45.14
13434;BME280;6789;47.678;9.158;2023-05-22T17:56:29;96357.56;;;25.29;45.52
13434;BME280;6789;47.678;9.158;2023-05-22T18:01:35;96350.75;;;25.32;45.61
13434;BME280;6789;47.678;9.158;2023-05-22T18:06:45;96356.75;;;25.29;45.46
13434;BME280;6789;47.678;9.158;2023-05-22T18:11:59;96357.16;;;25.19;44.63
13434;BME280;6789;47.678;9.158;2023-05-22T18:17:18;96364.81;;;25.00;45.24
13434;BME280;6789;47.678;9.158;2023-05-22T18:22:25;96363.59;;;24.89;46.46
13434;BME280;6789;47.678;9.158;2023-05-22T18:27:58;96376.34;;;24.63;47.39
13434;BME280;6789;47.678;9.158;2023-05-22T18:33:27;96382.06;;;24.37;48.61
13434;BME280;6789;47.678;9.158;2023-05-22T18:39:06;96389.03;;;24.12;49.63
13434;BME280;6789;47.678;9.158;2023-05-22T18:44:33;96393.81;;;23.90;51.39
13434;BME280;6789;47.678;9.158;2023-05-22T18:49:40;96399.00;;;23.78;52.52
13434;BME280;6789;47.678;9.158;2023-05-22T18:54:47;96398.94;;;23.53;53.50
13434;BME280;6789;47.678;9.158;2023-05-22T18:59:53;96398.75;;;23.32;53.89
13434;BME280;6789;47.678;9.158;2023-05-22T19:04:59;96401.28;;;22.98;54.91
13434;BME280;6789;47.678;9.158;2023-05-22T19:10:56;96417.06;;;22.70;57.13
13434;BME280;6789;47.678;9.158;2023-05-22T19:16:04;96426.19;;;22.38;58.03
13434;BME280;6789;47.678;9.158;2023-05-22T19:21:20;96428.88;;;22.25;57.52
13434;BME280;6789;47.678;9.158;2023-05-22T19:26:27;96432.47;;;21.99;58.41
13434;BME280;6789;47.678;9.158;2023-05-22T19:32:01;96436.75;;;21.86;58.27
13434;BME280;6789;47.678;9.158;2023-05-22T19:37:08;96443.75;;;21.74;59.09
13434;BME280;6789;47.678;9.158;2023-05-22T19:42:36;96444.44;;;21.66;59.38
13434;BME280;6789;47.678;9.158;2023-05-22T19:47:44;96446.94;;;21.36;59.74
13434;BME280;6789;47.678;9.158;2023-05-22T19:52:52;96468.66;;;21.43;60.46
13434;BME280;6789;47.678;9.158;2023-05-22T19:57:48;96475.91;;;21.29;61.04
13434;BME280;6789;47.678;9.158;2023-05-22T20:02:55;96493.59;;;21.11;61.38
13434;BME280;6789;47.678;9.158;2023-05-22T20:08:00;96493.59;;;20.98;62.16
13434;BME280;6789;47.678;9.158;2023-05-22T20:13:12;96496.16;;;20.89;63.21
13434;BME280;6789;47.678;9.158;2023-05-22T20:18:20;96506.66;;;20.81;64.83
13434;BME280;6789;47.678;9.158;2023-05-22T20:23:27;96508.78;;;20.66;65.98
13434;BME280;6789;47.678;9.158;2023-05-22T20:28:38;96506.00;;;20.57;66.87
13434;BME280;6789;47.678;9.158;2023-05-22T20:33:44;96504.06;;;20.44;68.20
13434;BME280;6789;47.678;9.158;2023-05-22T20:38:50;96503.47;;;20.34;69.77
13434;BME280;6789;47.678;9.158;2023-05-22T20:43:56;96511.97;;;20.17;71.35
13434;BME280;6789;47.678;9.158;2023-05-22T20:49:04;96503.03;;;20.08;72.82
13434;BME280;6789;47.678;9.158;2023-05-22T20:54:11;96494.91;;;20.00;73.67
13434;BME280;6789;47.678;9.158;2023-05-22T20:59:18;96503.31;;;19.89;75.30
13434;BME280;6789;47.678;9.158;2023-05-22T21:04:25;96487.81;;;19.72;76.44
13434;BME280;6789;47.678;9.158;2023-05-22T21:09:32;96493.66;;;19.56;77.96
13434;BME280;6789;47.678;9.158;2023-05-22T21:14:40;96494.22;;;19.53;78.53
13434;BME280;6789;47.678;9.158;2023-05-22T21:19:48;96506.34;;;19.82;76.63
13434;BME280;6789;47.678;9.158;2023-05-22T21:24:54;96514.34;;;19.59;78.79
13434;BME280;6789;47.678;9.158;2023-05-22T21:30:00;96529.19;;;19.41;79.62
13434;BME280;6789;47.678;9.158;2023-05-22T21:35:07;96538.53;;;19.39;80.36
13434;BME280;6789;47.678;9.158;2023-05-22T21:40:14;96540.75;;;19.32;79.44
13434;BME280;6789;47.678;9.158;2023-05-22T21:45:23;96556.94;;;19.12;80.28
13434;BME280;6789;47.678;9.158;2023-05-22T21:50:46;96553.91;;;18.90;82.12
13434;BME280;6789;47.678;9.158;2023-05-22T21:55:52;96554.63;;;18.72;83.26
13434;BME280;6789;47.678;9.158;2023-05-22T22:01:00;96557.03;;;18.69;84.47
13434;BME280;6789;47.678;9.158;2023-05-22T22:06:06;96570.69;;;18.86;82.70
13434;BME280;6789;47.678;9.158;2023-05-22T22:11:13;96570.03;;;18.70;84.05
13434;BME280;6789;47.678;9.158;2023-05-22T22:16:33;96578.59;;;18.67;84.28
13434;BME280;6789;47.678;9.158;2023-05-22T22:21:40;96574.97;;;18.54;85.57
13434;BME280;6789;47.678;9.158;2023-05-22T22:26:58;96558.50;;;18.52;85.04
13434;BME280;6789;47.678;9.158;2023-05-22T22:32:04;96564.72;;;18.37;86.09
13434;BME280;6789;47.678;9.158;2023-05-22T22:37:11;96578.19;;;18.46;86.28
13434;BME280;6789;47.678;9.158;2023-05-22T22:42:52;96577.72;;;18.44;86.17
13434;BME280;6789;47.678;9.158;2023-05-22T22:47:58;96573.50;;;18.33;86.47
13434;BME280;6789;47.678;9.158;2023-05-22T22:53:05;96573.59;;;18.23;86.77
13434;BME280;6789;47.678;9.158;2023-05-22T22:58:12;96578.38;;;18.16;87.37
13434;BME280;6789;47.678;9.158;2023-05-22T23:03:27;96583.97;;;18.19;88.60
13434;BME280;6789;47.678;9.158;2023-05-22T23:08:19;96577.41;;;18.02;89.12
13434;BME280;6789;47.678;9.158;2023-05-22T23:13:11;96582.25;;;17.95;89.02
13434;BME280;6789;47.678;9.158;2023-05-22T23:18:03;96584.22;;;18.18;88.10
13434;BME280;6789;47.678;9.158;2023-05-22T23:22:55;96584.88;;;17.95;89.29
13434;BME280;6789;47.678;9.158;2023-05-22T23:28:01;96585.19;;;17.84;90.22
13434;BME280;6789;47.678;9.158;2023-05-22T23:32:53;96593.19;;;17.74;92.12
13434;BME280;6789;47.678;9.158;2023-05-22T23:37:44;96590.31;;;17.65;94.99
13434;BME280;6789;47.678;9.158;2023-05-22T23:42:37;96596.66;;;17.74;95.31
13434;BME280;6789;47.678;9.158;2023-05-22T23:47:58;96595.38;;;17.57;95.46
13434;BME280;6789;47.678;9.158;2023-05-22T23:52:49;96589.84;;;17.48;96.15
13434;BME280;6789;47.678;9.158;2023-05-22T23:57:41;96590.38;;;17.50;95.98
